sensor_id;sensor_type;location;lat;lon;timestamp;pressure;altitude;pressure_sealevel;temperature;humidity
78679;BME280;67994;59.334;13.528;2023-12-20T00:00:00;99000.0;;;-0.5;90.4
78679;BME280;67994;59.334;13.528;2023-12-20T00:01:00;99000.0;;;-0.5;90.6
78679;BME280;67994;59.334;13.528;2023-12-20T00:02:00;99000.0;;;-0.5;91.0
78679;BME280;67994;59.334;13.528;2023-12-20T00:03:00;99000.0;;;-0.4;91.0
78679;BME280;67994;59.334;13.528;2023-12-20T00:04:00;99000.0;;;-0.4;91.1
78679;BME280;67994;59.334;13.528;2023-12-20T00:05:00;99000.0;;;-0.4;91.3
78679;BME280;67994;59.334;13.528;2023-12-20T00:06:00;99000.0;;;-0.4;91.1
78679;BME280;67994;59.334;13.528;2023-12-20T00:07:01;99000.0;;;-0.3;91.1
78679;BME280;67994;59.334;13.528;2023-12-20T00:08:00;99000.0;;;-0.3;91.2
78679;BME280;67994;59.334;13.528;2023-12-20T00:09:00;99000.0;;;-0.3;91.3
78679;BME280;67994;59.334;13.528;2023-12-20T00:10:00;99000.0;;;-0.3;91.3
78679;BME280;67994;59.334;13.528;2023-12-20T00:11:00;99000.0;;;-0.3;91.1
78679;BME280;67994;59.334;13.528;2023-12-20T00:12:00;99000.0;;;-0.3;91.0
78679;BME280;67994;59.334;13.528;2023-12-20T00:13:00;99000.0;;;-0.2;90.9
78679;BME280;67994;59.334;13.528;2023-12-20T00:14:00;99000.0;;;-0.2;90.9
78679;BME280;67994;59.334;13.528;2023-12-20T00:15:00;99000.0;;;-0.2;90.8
78679;BME280;67994;59.334;13.528;2023-12-20T00:16:00;99000.0;;;-0.3;91.0
78679;BME280;67994;59.334;13.528;2023-12-20T00:17:00;99000.0;;;-0.2;91.1
78679;BME280;67994;59.334;13.528;2023-12-20T00:18:00;99000.0;;;-0.2;90.9
78679;BME280;67994;59.334;13.528;2023-12-20T00:19:00;99000.0;;;-0.2;90.8
78679;BME280;67994;59.334;13.528;2023-12-20T00:20:00;99000.0;;;-0.2;90.8
78679;BME280;67994;59.334;13.528;2023-12-20T00:21:00;99000.0;;;-0.2;90.9
78679;BME280;67994;59.334;13.528;2023-12-20T00:22:00;99000.0;;;-0.2;90.9
78679;BME280;67994;59.334;13.528;2023-12-20T00:23:00;99000.0;;;-0.2;90.9
78679;BME280;67994;59.334;13.528;2023-12-20T00:24:00;99000.0;;;-0.2;91.1
78679;BME280;67994;59.334;13.528;2023-12-20T00:25:00;99000.0;;;-0.2;91.0
78679;BME280;67994;59.334;13.528;2023-12-20T00:26:00;99000.0;;;-0.1;90.9
78679;BME280;67994;59.334;13.528;2023-12-20T00:27:00;99000.0;;;-0.1;91.1
78679;BME280;67994;59.334;13.528;2023-12-20T00:28:00;99000.0;;;-0.2;91.6
78679;BME280;67994;59.334;13.528;2023-12-20T00:29:00;99000.0;;;-0.2;92.0
78679;BME280;67994;59.334;13.528;2023-12-20T00:30:00;99000.0;;;-0.1;92.2
78679;BME280;67994;59.334;13.528;2023-12-20T00:31:00;99000.0;;;-0.1;92.3
78679;BME280;67994;59.334;13.528;2023-12-20T00:32:00;99000.0;;;-0.1;92.1
78679;BME280;67994;59.334;13.528;2023-12-20T00:33:00;99000.0;;;-0.1;92.1
78679;BME280;67994;59.334;13.528;2023-12-20T00:34:00;99000.0;;;-0.1;92.6
78679;BME280;67994;59.334;13.528;2023-12-20T00:35:00;99000.0;;;-0.0;92.5
78679;BME280;67994;59.334;13.528;2023-12-20T00:36:00;99000.0;;;-0.0;93.2
78679;BME280;67994;59.334;13.528;2023-12-20T00:37:00;99000.0;;;0.0;93.0
78679;BME280;67994;59.334;13.528;2023-12-20T00:38:00;99000.0;;;-0.1;93.3
78679;BME280;67994;59.334;13.528;2023-12-20T00:39:00;99000.0;;;-0.3;92.8
78679;BME280;67994;59.334;13.528;2023-12-20T00:40:00;99000.0;;;-0.3;92.9
78679;BME280;67994;59.334;13.528;2023-12-20T00:41:00;99000.0;;;-0.4;93.0
78679;BME280;67994;59.334;13.528;2023-12-20T00:42:00;99000.0;;;-0.4;93.0
78679;BME280;67994;59.334;13.528;2023-12-20T00:43:00;99000.0;;;-0.4;92.8
78679;BME280;67994;59.334;13.528;2023-12-20T00:44:00;99000.0;;;-0.5;92.7
78679;BME280;67994;59.334;13.528;2023-12-20T00:45:00;99000.0;;;-0.4;92.6
78679;BME280;67994;59.334;13.528;2023-12-20T00:46:00;99000.0;;;-0.5;92.5
78679;BME280;67994;59.334;13.528;2023-12-20T00:47:00;99000.0;;;-0.6;92.4
78679;BME280;67994;59.334;13.528;2023-12-20T00:48:00;99000.0;;;-0.6;92.0
78679;BME280;67994;59.334;13.528;2023-12-20T00:49:00;99000.0;;;-0.6;92.1
78679;BME280;67994;59.334;13.528;2023-12-20T00:50:00;99000.0;;;-0.7;91.9
78679;BME280;67994;59.334;13.528;2023-12-20T00:51:00;99000.0;;;-0.7;92.0
78679;BME280;67994;59.334;13.528;2023-12-20T00:52:00;99000.0;;;-0.7;92.2
78679;BME280;67994;59.334;13.528;2023-12-20T00:53:00;99000.0;;;-0.6;92.3
78679;BME280;67994;59.334;13.528;2023-12-20T00:54:00;99000.0;;;-0.6;92.1
78679;BME280;67994;59.334;13.528;2023-12-20T00:55:00;99000.0;;;-0.6;92.2
78679;BME280;67994;59.334;13.528;2023-12-20T00:56:00;99000.0;;;-0.4;93.1
78679;BME280;67994;59.334;13.528;2023-12-20T00:57:00;99000.0;;;-0.4;93.0
78679;BME280;67994;59.334;13.528;2023-12-20T00:58:00;99000.0;;;-0.3;93.3
78679;BME280;67994;59.334;13.528;2023-12-20T00:59:00;99000.0;;;-0.2;93.7
78679;BME280;67994;59.334;13.528;2023-12-20T01:00:00;99000.0;;;-0.2;93.6
78679;BME280;67994;59.334;13.528;2023-12-20T01:01:00;99000.0;;;-0.1;93.7
78679;BME280;67994;59.334;13.528;2023-12-20T01:02:00;99000.0;;;0.1;94.2
78679;BME280;67994;59.334;13.528;2023-12-20T01:03:00;99000.0;;;0.2;94.9
78679;BME280;67994;59.334;13.528;2023-12-20T01:04:00;99000.0;;;0.2;94.9
78679;BME280;67994;59.334;13.528;2023-12-20T01:05:00;99000.0;;;0.3;94.9
78679;BME280;67994;59.334;13.528;2023-12-20T01:06:00;99000.0;;;0.4;95.3
78679;BME280;67994;59.334;13.528;2023-12-20T01:07:00;99000.0;;;0.4;95.3
78679;BME280;67994;59.334;13.528;2023-12-20T01:08:00;99000.0;;;0.4;95.0
78679;BME280;67994;59.334;13.528;2023-12-20T01:09:00;99000.0;;;0.5;95.1
78679;BME280;67994;59.334;13.528;2023-12-20T01:10:00;99000.0;;;0.5;95.1
78679;BME280;67994;59.334;13.528;2023-12-20T01:11:00;99000.0;;;0.6;95.3
78679;BME280;67994;59.334;13.528;2023-12-20T01:12:00;99000.0;;;0.7;95.4
78679;BME280;67994;59.334;13.528;2023-12-20T01:13:00;99000.0;;;0.8;95.4
78679;BME280;67994;59.334;13.528;2023-12-20T01:14:00;99000.0;;;0.8;95.4
78679;BME280;67994;59.334;13.528;2023-12-20T01:15:00;99000.0;;;0.9;95.6
78679;BME280;67994;59.334;13.528;2023-12-20T01:16:00;99000.0;;;0.9;95.4
78679;BME280;67994;59.334;13.528;2023-12-20T01:17:01;99000.0;;;0.9;95.3
78679;BME280;67994;59.334;13.528;2023-12-20T01:18:00;99000.0;;;0.9;95.2
78679;BME280;67994;59.334;13.528;2023-12-20T01:19:00;99000.0;;;1.0;95.1
78679;BME280;67994;59.334;13.528;2023-12-20T01:20:00;99000.0;;;1.1;95.4
78679;BME280;67994;59.334;13.528;2023-12-20T01:21:01;99000.0;;;1.2;95.3
78679;BME280;67994;59.334;13.528;2023-12-20T01:22:00;99000.0;;;1.2;95.1
78679;BME280;67994;59.334;13.528;2023-12-20T01:23:00;98900.0;;;1.2;95.3
78679;BME280;67994;59.334;13.528;2023-12-20T01:24:00;98900.0;;;1.2;94.9
78679;BME280;67994;59.334;13.528;2023-12-20T01:25:00;98900.0;;;1.3;95.0
78679;BME280;67994;59.334;13.528;2023-12-20T01:26:00;98900.0;;;1.3;94.8
78679;BME280;67994;59.334;13.528;2023-12-20T01:27:00;98900.0;;;1.3;94.5
78679;BME280;67994;59.334;13.528;2023-12-20T01:28:00;98900.0;;;1.3;94.2
78679;BME280;67994;59.334;13.528;2023-12-20T01:29:00;98900.0;;;1.3;94.0
78679;BME280;67994;59.334;13.528;2023-12-20T01:30:00;98900.0;;;1.3;93.7
78679;BME280;67994;59.334;13.528;2023-12-20T01:31:00;98900.0;;;1.4;93.9
78679;BME280;67994;59.334;13.528;2023-12-20T01:32:00;98900.0;;;1.4;93.9
78679;BME280;67994;59.334;13.528;2023-12-20T01:33:00;98900.0;;;1.4;93.8
78679;BME280;67994;59.334;13.528;2023-12-20T01:34:00;98900.0;;;1.4;93.6
78679;BME280;67994;59.334;13.528;2023-12-20T01:35:00;98900.0;;;1.4;93.6
78679;BME280;67994;59.334;13.528;2023-12-20T01:36:00;98900.0;;;1.4;93.3
78679;BME280;67994;59.334;13.528;2023-12-20T01:37:00;98900.0;;;1.4;93.5
78679;BME280;67994;59.334;13.528;2023-12-20T01:38:00;98900.0;;;1.4;93.4
78679;BME280;67994;59.334;13.528;2023-12-20T01:39:00;98900.0;;;1.4;93.1
78679;BME280;67994;59.334;13.528;2023-12-20T01:40:00;98900.0;;;1.4;93.2
78679;BME280;67994;59.334;13.528;2023-12-20T01:41:00;98900.0;;;1.5;93.3
78679;BME280;67994;59.334;13.528;2023-12-20T01:42:01;98900.0;;;1.5;93.5
78679;BME280;67994;59.334;13.528;2023-12-20T01:43:01;98900.0;;;1.5;93.1
78679;BME280;67994;59.334;13.528;2023-12-20T01:44:00;98900.0;;;1.5;92.9
78679;BME280;67994;59.334;13.528;2023-12-20T01:45:00;98900.0;;;1.5;93.3
78679;BME280;67994;59.334;13.528;2023-12-20T01:46:00;98900.0;;;1.6;93.6
78679;BME280;67994;59.334;13.528;2023-12-20T01:47:00;98900.0;;;1.6;93.7
78679;BME280;67994;59.334;13.528;2023-12-20T01:48:01;98900.0;;;1.7;93.6
78679;BME280;67994;59.334;13.528;2023-12-20T01:49:00;98900.0;;;1.7;93.3
78679;BME280;67994;59.334;13.528;2023-12-20T01:50:00;98900.0;;;1.7;93.4
78679;BME280;67994;59.334;13.528;2023-12-20T01:51:00;98900.0;;;1.6;93.2
78679;BME280;67994;59.334;13.528;2023-12-20T01:52:00;98900.0;;;1.7;93.1
78679;BME280;67994;59.334;13.528;2023-12-20T01:53:00;98900.0;;;1.6;93.3
78679;BME280;67994;59.334;13.528;2023-12-20T01:54:00;98900.0;;;1.6;93.4
78679;BME280;67994;59.334;13.528;2023-12-20T01:55:00;98900.0;;;1.6;93.3
78679;BME280;67994;59.334;13.528;2023-12-20T01:56:00;98900.0;;;1.6;93.3
78679;BME280;67994;59.334;13.528;2023-12-20T01:57:00;98900.0;;;1.7;93.4
78679;BME280;67994;59.334;13.528;2023-12-20T01:58:00;98900.0;;;1.7;93.3
78679;BME280;67994;59.334;13.528;2023-12-20T01:59:00;98900.0;;;1.7;93.2
78679;BME280;67994;59.334;13.528;2023-12-20T02:00:00;98900.0;;;1.7;93.2
78679;BME280;67994;59.334;13.528;2023-12-20T02:01:00;98900.0;;;1.7;93.3
78679;BME280;67994;59.334;13.528;2023-12-20T02:02:00;98900.0;;;1.8;93.1
78679;BME280;67994;59.334;13.528;2023-12-20T02:03:01;98900.0;;;1.7;92.9
78679;BME280;67994;59.334;13.528;2023-12-20T02:04:00;98900.0;;;1.8;92.8
78679;BME280;67994;59.334;13.528;2023-12-20T02:05:00;98900.0;;;1.8;92.7
78679;BME280;67994;59.334;13.528;2023-12-20T02:06:00;98900.0;;;1.8;92.8
78679;BME280;67994;59.334;13.528;2023-12-20T02:07:01;98900.0;;;1.8;92.6
78679;BME280;67994;59.334;13.528;2023-12-20T02:08:00;98900.0;;;1.8;92.6
78679;BME280;67994;59.334;13.528;2023-12-20T02:09:00;98900.0;;;1.8;92.6
78679;BME280;67994;59.334;13.528;2023-12-20T02:10:00;98900.0;;;1.8;92.4
78679;BME280;67994;59.334;13.528;2023-12-20T02:11:00;98900.0;;;1.8;92.2
78679;BME280;67994;59.334;13.528;2023-12-20T02:12:00;98900.0;;;1.8;92.2
78679;BME280;67994;59.334;13.528;2023-12-20T02:13:00;98900.0;;;1.8;92.3
78679;BME280;67994;59.334;13.528;2023-12-20T02:14:00;98900.0;;;1.8;92.4
78679;BME280;67994;59.334;13.528;2023-12-20T02:15:00;98800.0;;;1.9;92.4
78679;BME280;67994;59.334;13.528;2023-12-20T02:16:00;98900.0;;;1.8;92.0
78679;BME280;67994;59.334;13.528;2023-12-20T02:17:00;98900.0;;;1.8;91.6
78679;BME280;67994;59.334;13.528;2023-12-20T02:18:00;98900.0;;;1.8;91.5
78679;BME280;67994;59.334;13.528;2023-12-20T02:19:00;98800.0;;;1.8;91.8
78679;BME280;67994;59.334;13.528;2023-12-20T02:20:00;98800.0;;;1.8;91.7
78679;BME280;67994;59.334;13.528;2023-12-20T02:21:00;98800.0;;;1.8;91.6
78679;BME280;67994;59.334;13.528;2023-12-20T02:22:11;98800.0;;;1.8;91.7
78679;BME280;67994;59.334;13.528;2023-12-20T02:23:00;98800.0;;;1.8;91.9
78679;BME280;67994;59.334;13.528;2023-12-20T02:24:00;98800.0;;;1.8;91.9
78679;BME280;67994;59.334;13.528;2023-12-20T02:25:00;98800.0;;;1.8;91.8
78679;BME280;67994;59.334;13.528;2023-12-20T02:26:00;98800.0;;;1.8;91.9
78679;BME280;67994;59.334;13.528;2023-12-20T02:27:00;98800.0;;;1.8;92.2
78679;BME280;67994;59.334;13.528;2023-12-20T02:28:00;98800.0;;;1.8;92.2
78679;BME280;67994;59.334;13.528;2023-12-20T02:29:00;98800.0;;;1.8;92.0
78679;BME280;67994;59.334;13.528;2023-12-20T02:30:00;98800.0;;;1.9;91.9
78679;BME280;67994;59.334;13.528;2023-12-20T02:31:00;98800.0;;;1.9;92.0
78679;BME280;67994;59.334;13.528;2023-12-20T02:32:00;98800.0;;;1.9;92.0
78679;BME280;67994;59.334;13.528;2023-12-20T02:33:00;98800.0;;;1.9;92.0
78679;BME280;67994;59.334;13.528;2023-12-20T02:34:00;98800.0;;;1.9;92.2
78679;BME280;67994;59.334;13.528;2023-12-20T02:35:00;98800.0;;;1.9;92.3
78679;BME280;67994;59.334;13.528;2023-12-20T02:36:00;98800.0;;;1.9;92.3
78679;BME280;67994;59.334;13.528;2023-12-20T02:37:00;98800.0;;;1.9;92.4
78679;BME280;67994;59.334;13.528;2023-12-20T02:38:00;98800.0;;;1.9;92.4
78679;BME280;67994;59.334;13.528;2023-12-20T02:39:00;98800.0;;;1.9;92.4
78679;BME280;67994;59.334;13.528;2023-12-20T02:40:00;98800.0;;;1.9;92.3
78679;BME280;67994;59.334;13.528;2023-12-20T02:41:00;98800.0;;;1.9;92.3
78679;BME280;67994;59.334;13.528;2023-12-20T02:42:00;98800.0;;;1.9;92.2
78679;BME280;67994;59.334;13.528;2023-12-20T02:43:00;98800.0;;;1.9;92.3
78679;BME280;67994;59.334;13.528;2023-12-20T02:44:01;98800.0;;;1.9;92.7
78679;BME280;67994;59.334;13.528;2023-12-20T02:45:00;98800.0;;;1.9;92.7
78679;BME280;67994;59.334;13.528;2023-12-20T02:46:00;98800.0;;;1.9;92.6
78679;BME280;67994;59.334;13.528;2023-12-20T02:47:00;98800.0;;;1.9;92.6
78679;BME280;67994;59.334;13.528;2023-12-20T02:48:00;98800.0;;;1.9;92.4
78679;BME280;67994;59.334;13.528;2023-12-20T02:49:00;98800.0;;;1.9;92.5
78679;BME280;67994;59.334;13.528;2023-12-20T02:50:00;98800.0;;;1.9;92.6
78679;BME280;67994;59.334;13.528;2023-12-20T02:51:00;98800.0;;;1.9;92.4
78679;BME280;67994;59.334;13.528;2023-12-20T02:52:00;98800.0;;;1.9;92.2
78679;BME280;67994;59.334;13.528;2023-12-20T02:53:00;98800.0;;;1.9;92.2
78679;BME280;67994;59.334;13.528;2023-12-20T02:54:00;98800.0;;;2.0;92.3
78679;BME280;67994;59.334;13.528;2023-12-20T02:55:00;98800.0;;;2.0;91.9
78679;BME280;67994;59.334;13.528;2023-12-20T02:56:00;98800.0;;;2.0;91.9
78679;BME280;67994;59.334;13.528;2023-12-20T02:57:00;98800.0;;;2.0;91.9
78679;BME280;67994;59.334;13.528;2023-12-20T02:58:00;98800.0;;;2.0;91.9
78679;BME280;67994;59.334;13.528;2023-12-20T02:59:00;98800.0;;;2.0;92.0
78679;BME280;67994;59.334;13.528;2023-12-20T03:00:00;98800.0;;;2.0;92.0
78679;BME280;67994;59.334;13.528;2023-12-20T03:01:00;98800.0;;;2.0;92.0
78679;BME280;67994;59.334;13.528;2023-12-20T03:02:00;98800.0;;;2.0;92.4
78679;BME280;67994;59.334;13.528;2023-12-20T03:03:00;98800.0;;;2.0;92.4
78679;BME280;67994;59.334;13.528;2023-12-20T03:04:00;98800.0;;;2.0;92.1
78679;BME280;67994;59.334;13.528;2023-12-20T03:05:00;98800.0;;;2.0;92.2
78679;BME280;67994;59.334;13.528;2023-12-20T03:06:00;98800.0;;;2.0;92.1
78679;BME280;67994;59.334;13.528;2023-12-20T03:07:00;98800.0;;;2.0;92.1
78679;BME280;67994;59.334;13.528;2023-12-20T03:08:00;98800.0;;;2.0;91.9
78679;BME280;67994;59.334;13.528;2023-12-20T03:09:00;98800.0;;;2.0;91.8
78679;BME280;67994;59.334;13.528;2023-12-20T03:10:00;98800.0;;;2.0;91.8
78679;BME280;67994;59.334;13.528;2023-12-20T03:11:00;98800.0;;;2.0;92.1
78679;BME280;67994;59.334;13.528;2023-12-20T03:12:00;98800.0;;;2.0;92.1
78679;BME280;67994;59.334;13.528;2023-12-20T03:13:00;98800.0;;;2.0;92.2
78679;BME280;67994;59.334;13.528;2023-12-20T03:14:00;98800.0;;;2.0;92.1
78679;BME280;67994;59.334;13.528;2023-12-20T03:15:00;98800.0;;;2.0;92.2
78679;BME280;67994;59.334;13.528;2023-12-20T03:16:00;98800.0;;;2.0;92.4
78679;BME280;67994;59.334;13.528;2023-12-20T03:17:00;98800.0;;;2.0;92.4
78679;BME280;67994;59.334;13.528;2023-12-20T03:18:00;98800.0;;;2.0;92.5
78679;BME280;67994;59.334;13.528;2023-12-20T03:19:00;98800.0;;;2.0;92.2
78679;BME280;67994;59.334;13.528;2023-12-20T03:20:00;98800.0;;;2.1;92.2
78679;BME280;67994;59.334;13.528;2023-12-20T03:21:00;98800.0;;;2.1;92.2
78679;BME280;67994;59.334;13.528;2023-12-20T03:22:00;98800.0;;;2.1;92.0
78679;BME280;67994;59.334;13.528;2023-12-20T03:23:00;98800.0;;;2.1;91.8
78679;BME280;67994;59.334;13.528;2023-12-20T03:24:00;98700.0;;;2.1;91.9
78679;BME280;67994;59.334;13.528;2023-12-20T03:25:00;98700.0;;;2.1;92.1
78679;BME280;67994;59.334;13.528;2023-12-20T03:26:00;98700.0;;;2.1;91.9
78679;BME280;67994;59.334;13.528;2023-12-20T03:27:00;98700.0;;;2.1;91.8
78679;BME280;67994;59.334;13.528;2023-12-20T03:28:00;98700.0;;;2.1;91.9
78679;BME280;67994;59.334;13.528;2023-12-20T03:29:00;98700.0;;;2.1;91.7
78679;BME280;67994;59.334;13.528;2023-12-20T03:30:00;98700.0;;;2.1;91.7
78679;BME280;67994;59.334;13.528;2023-12-20T03:31:00;98700.0;;;2.1;91.7
78679;BME280;67994;59.334;13.528;2023-12-20T03:32:00;98700.0;;;2.2;91.9
78679;BME280;67994;59.334;13.528;2023-12-20T03:33:00;98700.0;;;2.2;91.8
78679;BME280;67994;59.334;13.528;2023-12-20T03:34:00;98700.0;;;2.2;91.5
78679;BME280;67994;59.334;13.528;2023-12-20T03:35:00;98700.0;;;2.2;91.5
78679;BME280;67994;59.334;13.528;2023-12-20T03:36:00;98700.0;;;2.2;91.5
78679;BME280;67994;59.334;13.528;2023-12-20T03:37:00;98700.0;;;2.2;91.6
78679;BME280;67994;59.334;13.528;2023-12-20T03:38:00;98700.0;;;2.2;91.4
78679;BME280;67994;59.334;13.528;2023-12-20T03:39:00;98700.0;;;2.2;91.4
78679;BME280;67994;59.334;13.528;2023-12-20T03:40:00;98700.0;;;2.2;91.7
78679;BME280;67994;59.334;13.528;2023-12-20T03:41:00;98700.0;;;2.2;91.9
78679;BME280;67994;59.334;13.528;2023-12-20T03:42:00;98700.0;;;2.2;91.9
78679;BME280;67994;59.334;13.528;2023-12-20T03:43:00;98700.0;;;2.2;91.5
78679;BME280;67994;59.334;13.528;2023-12-20T03:44:00;98700.0;;;2.2;91.5
78679;BME280;67994;59.334;13.528;2023-12-20T03:45:00;98700.0;;;2.2;91.8
78679;BME280;67994;59.334;13.528;2023-12-20T03:46:00;98700.0;;;2.2;91.9
78679;BME280;67994;59.334;13.528;2023-12-20T03:47:00;98700.0;;;2.2;91.7
78679;BME280;67994;59.334;13.528;2023-12-20T03:48:00;98700.0;;;2.2;91.7
78679;BME280;67994;59.334;13.528;2023-12-20T03:49:00;98700.0;;;2.2;92.0
78679;BME280;67994;59.334;13.528;2023-12-20T03:50:00;98700.0;;;2.2;92.4
78679;BME280;67994;59.334;13.528;2023-12-20T03:51:00;98700.0;;;2.2;92.5
78679;BME280;67994;59.334;13.528;2023-12-20T03:52:00;98700.0;;;2.2;92.7
78679;BME280;67994;59.334;13.528;2023-12-20T03:53:00;98700.0;;;2.2;92.7
78679;BME280;67994;59.334;13.528;2023-12-20T03:54:00;98700.0;;;2.2;92.7
78679;BME280;67994;59.334;13.528;2023-12-20T03:55:00;98700.0;;;2.2;92.6
78679;BME280;67994;59.334;13.528;2023-12-20T03:56:00;98700.0;;;2.2;92.8
78679;BME280;67994;59.334;13.528;2023-12-20T03:57:00;98700.0;;;2.2;92.8
78679;BME280;67994;59.334;13.528;2023-12-20T03:58:00;98700.0;;;2.2;92.6
78679;BME280;67994;59.334;13.528;2023-12-20T03:59:00;98700.0;;;2.3;92.4
78679;BME280;67994;59.334;13.528;2023-12-20T04:00:00;98700.0;;;2.3;92.2
78679;BME280;67994;59.334;13.528;2023-12-20T04:01:00;98700.0;;;2.3;92.2
78679;BME280;67994;59.334;13.528;2023-12-20T04:02:00;98700.0;;;2.3;92.1
78679;BME280;67994;59.334;13.528;2023-12-20T04:03:00;98700.0;;;2.3;92.1
78679;BME280;67994;59.334;13.528;2023-12-20T04:04:00;98700.0;;;2.3;92.1
78679;BME280;67994;59.334;13.528;2023-12-20T04:05:00;98700.0;;;2.3;92.0
78679;BME280;67994;59.334;13.528;2023-12-20T04:06:00;98700.0;;;2.3;92.1
78679;BME280;67994;59.334;13.528;2023-12-20T04:07:00;98700.0;;;2.3;92.3
78679;BME280;67994;59.334;13.528;2023-12-20T04:08:01;98700.0;;;2.3;92.4
78679;BME280;67994;59.334;13.528;2023-12-20T04:09:00;98700.0;;;2.3;92.4
78679;BME280;67994;59.334;13.528;2023-12-20T04:10:00;98700.0;;;2.3;92.6
78679;BME280;67994;59.334;13.528;2023-12-20T04:11:00;98700.0;;;2.4;92.4
78679;BME280;67994;59.334;13.528;2023-12-20T04:12:00;98700.0;;;2.4;92.4
78679;BME280;67994;59.334;13.528;2023-12-20T04:13:00;98700.0;;;2.4;92.5
78679;BME280;67994;59.334;13.528;2023-12-20T04:14:00;98700.0;;;2.4;92.4
78679;BME280;67994;59.334;13.528;2023-12-20T04:15:00;98700.0;;;2.4;92.5
78679;BME280;67994;59.334;13.528;2023-12-20T04:16:00;98700.0;;;2.4;92.7
78679;BME280;67994;59.334;13.528;2023-12-20T04:17:00;98700.0;;;2.4;92.5
78679;BME280;67994;59.334;13.528;2023-12-20T04:18:00;98700.0;;;2.4;92.5
78679;BME280;67994;59.334;13.528;2023-12-20T04:19:00;98700.0;;;2.4;92.2
78679;BME280;67994;59.334;13.528;2023-12-20T04:20:00;98700.0;;;2.4;92.1
78679;BME280;67994;59.334;13.528;2023-12-20T04:21:00;98700.0;;;2.4;92.3
78679;BME280;67994;59.334;13.528;2023-12-20T04:22:00;98700.0;;;2.4;92.4
78679;BME280;67994;59.334;13.528;2023-12-20T04:23:00;98700.0;;;2.4;92.7
78679;BME280;67994;59.334;13.528;2023-12-20T04:24:00;98700.0;;;2.4;92.6
78679;BME280;67994;59.334;13.528;2023-12-20T04:25:00;98700.0;;;2.4;92.4
78679;BME280;67994;59.334;13.528;2023-12-20T04:26:00;98700.0;;;2.4;92.3
78679;BME280;67994;59.334;13.528;2023-12-20T04:27:00;98700.0;;;2.4;92.5
78679;BME280;67994;59.334;13.528;2023-12-20T04:28:00;98600.0;;;2.4;92.3
78679;BME280;67994;59.334;13.528;2023-12-20T04:29:00;98600.0;;;2.4;93.0
78679;BME280;67994;59.334;13.528;2023-12-20T04:30:00;98600.0;;;2.4;93.0
78679;BME280;67994;59.334;13.528;2023-12-20T04:31:00;98600.0;;;2.4;93.0
78679;BME280;67994;59.334;13.528;2023-12-20T04:32:00;98600.0;;;2.5;92.9
78679;BME280;67994;59.334;13.528;2023-12-20T04:33:00;98600.0;;;2.5;93.0
78679;BME280;67994;59.334;13.528;2023-12-20T04:34:00;98600.0;;;2.5;93.0
78679;BME280;67994;59.334;13.528;2023-12-20T04:35:00;98600.0;;;2.5;93.1
78679;BME280;67994;59.334;13.528;2023-12-20T04:36:00;98600.0;;;2.5;93.5
78679;BME280;67994;59.334;13.528;2023-12-20T04:37:00;98600.0;;;2.5;93.2
78679;BME280;67994;59.334;13.528;2023-12-20T04:38:00;98600.0;;;2.6;93.6
78679;BME280;67994;59.334;13.528;2023-12-20T04:39:00;98600.0;;;2.5;93.6
78679;BME280;67994;59.334;13.528;2023-12-20T04:40:00;98600.0;;;2.6;93.5
78679;BME280;67994;59.334;13.528;2023-12-20T04:41:00;98600.0;;;2.6;93.1
78679;BME280;67994;59.334;13.528;2023-12-20T04:42:00;98600.0;;;2.6;92.9
78679;BME280;67994;59.334;13.528;2023-12-20T04:43:00;98600.0;;;2.6;92.6
78679;BME280;67994;59.334;13.528;2023-12-20T04:44:00;98600.0;;;2.6;92.5
78679;BME280;67994;59.334;13.528;2023-12-20T04:45:00;98600.0;;;2.6;92.3
78679;BME280;67994;59.334;13.528;2023-12-20T04:46:00;98600.0;;;2.6;92.2
78679;BME280;67994;59.334;13.528;2023-12-20T04:47:00;98600.0;;;2.6;92.2
78679;BME280;67994;59.334;13.528;2023-12-20T04:48:00;98600.0;;;2.6;92.2
78679;BME280;67994;59.334;13.528;2023-12-20T04:49:00;98600.0;;;2.6;92.2
78679;BME280;67994;59.334;13.528;2023-12-20T04:50:00;98600.0;;;2.6;92.0
78679;BME280;67994;59.334;13.528;2023-12-20T04:51:00;98600.0;;;2.6;92.0
78679;BME280;67994;59.334;13.528;2023-12-20T04:52:00;98600.0;;;2.6;92.0
78679;BME280;67994;59.334;13.528;2023-12-20T04:53:00;98600.0;;;2.6;92.2
78679;BME280;67994;59.334;13.528;2023-12-20T04:54:00;98600.0;;;2.6;92.1
78679;BME280;67994;59.334;13.528;2023-12-20T04:55:00;98600.0;;;2.6;92.3
78679;BME280;67994;59.334;13.528;2023-12-20T04:56:00;98600.0;;;2.5;92.2
78679;BME280;67994;59.334;13.528;2023-12-20T04:57:00;98600.0;;;2.5;92.3
78679;BME280;67994;59.334;13.528;2023-12-20T04:58:00;98600.0;;;2.5;92.3
78679;BME280;67994;59.334;13.528;2023-12-20T04:59:00;98600.0;;;2.5;92.3
78679;BME280;67994;59.334;13.528;2023-12-20T05:00:00;98600.0;;;2.5;92.4
78679;BME280;67994;59.334;13.528;2023-12-20T05:01:00;98600.0;;;2.5;92.5
78679;BME280;67994;59.334;13.528;2023-12-20T05:02:00;98600.0;;;2.5;92.7
78679;BME280;67994;59.334;13.528;2023-12-20T05:03:00;98600.0;;;2.5;92.7
78679;BME280;67994;59.334;13.528;2023-12-20T05:04:00;98600.0;;;2.6;92.7
78679;BME280;67994;59.334;13.528;2023-12-20T05:05:00;98600.0;;;2.6;92.8
78679;BME280;67994;59.334;13.528;2023-12-20T05:06:00;98600.0;;;2.5;93.0
78679;BME280;67994;59.334;13.528;2023-12-20T05:07:00;98600.0;;;2.5;93.3
78679;BME280;67994;59.334;13.528;2023-12-20T05:08:00;98600.0;;;2.5;93.5
78679;BME280;67994;59.334;13.528;2023-12-20T05:09:00;98600.0;;;2.5;93.7
78679;BME280;67994;59.334;13.528;2023-12-20T05:10:00;98600.0;;;2.6;93.8
78679;BME280;67994;59.334;13.528;2023-12-20T05:11:00;98600.0;;;2.6;93.4
78679;BME280;67994;59.334;13.528;2023-12-20T05:12:00;98600.0;;;2.6;93.0
78679;BME280;67994;59.334;13.528;2023-12-20T05:13:00;98600.0;;;2.6;92.7
78679;BME280;67994;59.334;13.528;2023-12-20T05:14:00;98600.0;;;2.6;92.8
78679;BME280;67994;59.334;13.528;2023-12-20T05:15:00;98600.0;;;2.6;93.0
78679;BME280;67994;59.334;13.528;2023-12-20T05:16:00;98600.0;;;2.6;92.8
78679;BME280;67994;59.334;13.528;2023-12-20T05:17:00;98600.0;;;2.6;92.6
78679;BME280;67994;59.334;13.528;2023-12-20T05:18:00;98600.0;;;2.6;92.7
78679;BME280;67994;59.334;13.528;2023-12-20T05:19:00;98600.0;;;2.7;92.8
78679;BME280;67994;59.334;13.528;2023-12-20T05:20:00;98600.0;;;2.6;92.9
78679;BME280;67994;59.334;13.528;2023-12-20T05:21:00;98600.0;;;2.6;92.6
78679;BME280;67994;59.334;13.528;2023-12-20T05:22:00;98600.0;;;2.7;92.4
78679;BME280;67994;59.334;13.528;2023-12-20T05:23:00;98600.0;;;2.7;92.4
78679;BME280;67994;59.334;13.528;2023-12-20T05:24:00;98600.0;;;2.7;92.6
78679;BME280;67994;59.334;13.528;2023-12-20T05:25:00;98600.0;;;2.7;92.7
78679;BME280;67994;59.334;13.528;2023-12-20T05:26:00;98600.0;;;2.7;92.5
78679;BME280;67994;59.334;13.528;2023-12-20T05:27:00;98600.0;;;2.7;92.7
78679;BME280;67994;59.334;13.528;2023-12-20T05:28:00;98600.0;;;2.7;92.4
78679;BME280;67994;59.334;13.528;2023-12-20T05:29:00;98600.0;;;2.8;92.3
78679;BME280;67994;59.334;13.528;2023-12-20T05:30:00;98600.0;;;2.8;92.6